Flag for USA

Past Weather in Corpus Christi, Texas, USA — Yesterday and Last 2 Weeks

Currently: 58 °F. Mostly cloudy. (Weather station: Corpus Christi International Airport, USA). See more current weather

Past Weather in Corpus Christi — Graph

°F

Corpus Christi Temperature Yesterday

Maximum temperature yesterday: 75 °F (at 11:51 am)
Minimum temperature yesterday: 67 °F (at 12:51 am)
Average temperature yesterday: 70 °F

High & Low Weather Summary for the Past Weeks

 TemperatureHumidityPressure
High80 °F (Jan 14, 3:51 pm)100% (Jan 10, 5:33 am)30.49 "Hg (Jan 10, 5:33 am)
Low33 °F (Jan 13, 2:51 am)14% (Jan 15, 1:51 pm)29.85 "Hg (Jan 14, 3:51 pm)
Average54 °F75%30.16 "Hg
* Reported Jan 5 7:51 pm — Jan 20 7:07 pm, Corpus Christi. Weather by CustomWeather, © 2021

Note: Actual official high and low records may vary slightly from our data, if they occured in-between our weather recording intervals... More about our weather records

Corpus Christi Weather History for the Previous 24 Hours

Scroll right to see more
 ConditionsComfort  
Time TempWeatherWind HumidityBarometerVisibility
7:07 pm
Wed, Jan 20
60 °FFog.9 mph96%30.18 "Hg6 mi
6:51 pm60 °FFog.9 mph96%30.17 "Hg5 mi
5:51 pm62 °FLight rain. Fog.9 mph96%30.16 "Hg2 mi
5:33 pm62 °FLight rain. Fog.8 mph96%30.16 "Hg1 mi
5:13 pm62 °FLight rain. Fog.9 mph96%30.16 "Hg2 mi
4:51 pm63 °FLight rain. Fog.9 mph97%30.16 "Hg2 mi
4:35 pm63 °FLight rain. Fog.6 mph100%30.15 "Hg2 mi
4:12 pm63 °FRain. Fog.10 mph100%30.15 "Hg2 mi
4:02 pm63 °FLight rain. Fog.12 mph97%30.16 "Hg2 mi
3:51 pm65 °FLight rain. Fog.14 mph94%30.15 "Hg3 mi
3:13 pm69 °FFog.7 mph87%30.16 "Hg6 mi
2:51 pm68 °FCloudy.7 mph87%30.16 "Hg8 mi
1:51 pm68 °FMostly cloudy.8 mph82%30.18 "Hg7 mi
12:51 pm66 °FLow clouds.8 mph84%30.22 "Hg6 mi
11:51 am64 °FFog.9 mph87%30.25 "Hg6 mi
10:51 am62 °FFog.8 mph90%30.27 "Hg4 mi
9:51 am60 °FFog.10 mph90%30.29 "Hg4 mi
8:51 am59 °FFog.12 mph93%30.29 "Hg4 mi
8:37 am59 °FFog.12 mph93%30.27 "Hg3 mi
7:51 am58 °FFog.14 mph97%30.26 "Hg5 mi
6:51 am58 °FLow clouds.15 mph93%30.26 "Hg9 mi
5:51 am59 °FMostly cloudy.14 mph90%30.25 "Hg10 mi
5:07 am58 °FLow clouds.13 mph93%30.25 "Hg10 mi
4:51 am59 °FOvercast.14 mph90%30.24 "Hg10 mi
4:06 am60 °FOvercast.14 mph86%30.26 "Hg10 mi
3:41 am60 °FMostly cloudy.15 mph90%30.26 "Hg10 mi
2:51 am61 °FLight rain. Mostly cloudy.16 mph87%30.26 "Hg10 mi
2:19 am63 °FLight rain. Overcast.13 mph90%30.27 "Hg10 mi
1:51 am65 °FMostly cloudy.14 mph91%30.26 "Hg10 mi
1:13 am66 °FMostly cloudy.10 mph90%30.26 "Hg10 mi
12:51 am66 °FOvercast.8 mph90%30.26 "Hg10 mi
11:51 pm
Tue, Jan 19
68 °FOvercast.5 mph87%30.25 "Hg10 mi
10:51 pm68 °FOvercast.10 mph84%30.25 "Hg10 mi
9:51 pm68 °FMostly cloudy.14 mph84%30.24 "Hg10 mi
8:51 pm69 °FMostly cloudy.14 mph79%30.24 "Hg10 mi
Weather by CustomWeather, © 2021

See weather overview